createdAt,value
2023-05-13T00:01:38.981Z,102006.13
2023-05-13T00:04:08.827Z,102007.16
2023-05-13T00:06:36.004Z,102004.53
2023-05-13T00:09:03.006Z,102004.22
2023-05-13T00:11:29.662Z,101994.50
2023-05-13T00:13:57.347Z,102001.69
2023-05-13T00:16:27.334Z,101997.41
2023-05-13T00:18:55.081Z,101996.44
2023-05-13T00:21:22.358Z,102007.50
2023-05-13T00:23:49.364Z,102011.00
2023-05-13T00:26:15.875Z,101999.53
2023-05-13T00:28:42.343Z,102001.78
2023-05-13T00:31:10.092Z,102006.63
2023-05-13T00:33:36.576Z,101998.63
2023-05-13T00:36:03.044Z,102002.47
2023-05-13T00:38:29.445Z,101996.50
2023-05-13T00:40:55.997Z,101996.78
2023-05-13T00:43:22.525Z,101992.53
2023-05-13T00:45:49.031Z,101991.19
2023-05-13T00:48:15.819Z,101999.72
2023-05-13T00:50:44.534Z,101996.66
2023-05-13T00:53:12.629Z,102005.16
2023-05-13T00:55:43.235Z,101994.31
2023-05-13T00:58:09.715Z,101996.81
2023-05-13T01:00:41.233Z,101998.88
2023-05-13T01:03:13.395Z,101995.59
2023-05-13T01:05:51.491Z,101992.59
2023-05-13T01:08:42.917Z,101998.28
2023-05-13T01:11:23.280Z,101994.72
2023-05-13T01:13:53.052Z,101996.53
2023-05-13T01:16:35.965Z,102002.19
2023-05-13T01:19:07.245Z,102005.50
2023-05-13T01:21:38.798Z,102000.72
2023-05-13T01:24:05.664Z,101998.22
2023-05-13T01:26:32.046Z,102000.69
2023-05-13T01:28:58.466Z,102012.47
2023-05-13T01:31:25.499Z,102008.53
2023-05-13T01:33:52.144Z,102007.66
2023-05-13T01:36:18.557Z,102014.97
2023-05-13T01:38:45.134Z,102012.47
2023-05-13T01:41:11.526Z,102022.41
2023-05-13T01:43:37.927Z,102012.44
2023-05-13T01:46:04.521Z,102015.94
2023-05-13T01:48:31.089Z,102015.16
2023-05-13T01:50:57.994Z,102015.47
2023-05-13T01:53:24.543Z,102024.50
2023-05-13T01:55:51.079Z,102016.19
2023-05-13T01:58:17.530Z,102016.31
2023-05-13T02:00:44.006Z,102008.50
2023-05-13T02:03:10.633Z,102007.34
2023-05-13T02:05:37.113Z,102012.09
2023-05-13T02:08:03.627Z,102008.22
2023-05-13T02:10:30.035Z,102005.03
2023-05-13T02:12:56.998Z,102000.41
2023-05-13T02:15:23.423Z,102004.19
2023-05-13T02:17:50.036Z,102006.94
2023-05-13T02:20:17.042Z,102003.66
2023-05-13T02:22:43.443Z,102007.41
2023-05-13T02:25:10.056Z,102005.53
2023-05-13T02:27:36.998Z,102010.19
2023-05-13T02:30:03.689Z,102006.72
2023-05-13T02:32:30.213Z,102007.28
2023-05-13T02:34:56.647Z,101999.09
2023-05-13T02:37:23.034Z,102003.38
2023-05-13T02:39:49.438Z,102005.41
2023-05-13T02:42:15.922Z,102007.59
2023-05-13T02:44:42.354Z,102001.19
2023-05-13T02:47:08.769Z,102009.19
2023-05-13T02:49:35.169Z,102013.50
2023-05-13T02:52:01.543Z,102005.91
2023-05-13T02:54:28.492Z,101996.13
2023-05-13T02:56:54.930Z,101997.78
2023-05-13T02:59:21.324Z,101994.81
2023-05-13T03:01:47.725Z,101994.75
2023-05-13T03:04:14.118Z,101995.84
2023-05-13T03:06:40.519Z,101997.09
2023-05-13T03:09:06.943Z,101994.09
2023-05-13T03:11:33.633Z,101996.22
2023-05-13T03:14:00.013Z,101997.28
2023-05-13T03:16:26.793Z,101995.75
2023-05-13T03:18:53.322Z,101993.28
2023-05-13T03:21:19.839Z,102001.50
2023-05-13T03:23:46.263Z,102003.50
2023-05-13T03:26:12.782Z,102000.53
2023-05-13T03:28:39.431Z,101994.34
2023-05-13T03:31:06.081Z,101997.03
2023-05-13T03:33:32.530Z,101996.97
2023-05-13T03:35:58.975Z,101993.75
2023-05-13T03:38:25.347Z,101991.13
2023-05-13T03:40:51.760Z,102006.72
2023-05-13T03:43:18.216Z,102000.00
2023-05-13T03:45:47.673Z,102001.41
2023-05-13T03:48:15.348Z,102000.50
2023-05-13T03:50:42.008Z,101999.66
2023-05-13T03:53:08.517Z,102009.34
2023-05-13T03:55:34.952Z,102000.81
2023-05-13T03:58:11.504Z,101997.03
2023-05-13T04:00:37.948Z,102002.59
2023-05-13T04:03:04.524Z,102003.31
2023-05-13T04:05:30.969Z,102006.78
2023-05-13T04:07:57.443Z,102003.19
2023-05-13T04:10:24.064Z,102010.41
2023-05-13T04:12:50.594Z,102018.53
2023-05-13T04:15:17.096Z,102013.88
2023-05-13T04:17:43.529Z,102029.47
2023-05-13T04:20:10.251Z,102026.13
2023-05-13T04:22:36.684Z,102033.47
2023-05-13T04:25:03.227Z,102030.53
2023-05-13T04:27:29.645Z,102037.00
2023-05-13T04:29:56.082Z,102032.03
2023-05-13T04:32:22.952Z,102029.06
2023-05-13T04:34:49.771Z,102028.72
2023-05-13T04:37:16.290Z,102029.22
2023-05-13T04:39:46.640Z,102035.00
2023-05-13T04:42:13.964Z,102033.09
2023-05-13T04:44:40.476Z,102042.28
2023-05-13T04:47:07.026Z,102042.81
2023-05-13T04:49:33.513Z,102035.28
2023-05-13T04:52:04.433Z,102043.53
2023-05-13T04:54:30.837Z,102047.28
2023-05-13T04:56:57.216Z,102040.38
2023-05-13T04:59:23.605Z,102046.91
2023-05-13T05:01:50.037Z,102047.34
2023-05-13T05:04:16.603Z,102054.84
2023-05-13T05:06:43.118Z,102053.59
2023-05-13T05:09:09.591Z,102058.75
2023-05-13T05:11:35.974Z,102062.69
2023-05-13T05:14:02.441Z,102067.03
2023-05-13T05:16:28.870Z,102067.41
2023-05-13T05:18:55.530Z,102057.31
2023-05-13T05:21:22.244Z,102063.91
2023-05-13T05:23:48.700Z,102064.66
2023-05-13T05:26:15.167Z,102077.84
2023-05-13T05:28:42.443Z,102063.97
2023-05-13T05:31:09.768Z,102074.44
2023-05-13T05:33:36.682Z,102068.78
2023-05-13T05:36:03.103Z,102062.09
2023-05-13T05:38:29.546Z,102058.44
2023-05-13T05:40:56.113Z,102069.31
2023-05-13T05:43:22.514Z,102075.16
2023-05-13T05:45:49.081Z,102070.28
2023-05-13T05:48:15.762Z,102069.34
2023-05-13T05:50:42.270Z,102074.94
2023-05-13T05:53:08.637Z,102077.19
2023-05-13T05:55:35.084Z,102074.78
2023-05-13T05:58:05.325Z,102082.28
2023-05-13T06:00:33.039Z,102070.09
2023-05-13T06:02:59.700Z,102070.28
2023-05-13T06:05:26.258Z,102077.19
2023-05-13T06:07:52.680Z,102084.72
2023-05-13T06:10:19.432Z,102077.69
2023-05-13T06:12:46.188Z,102079.72
2023-05-13T06:15:12.699Z,102073.47
2023-05-13T06:17:39.499Z,102082.09
2023-05-13T06:20:06.563Z,102069.19
2023-05-13T06:22:32.997Z,102081.97
2023-05-13T06:24:59.402Z,102078.53
2023-05-13T06:27:25.793Z,102075.91
2023-05-13T06:29:52.414Z,102079.28
2023-05-13T06:32:18.805Z,102083.81
2023-05-13T06:34:47.041Z,102076.94
2023-05-13T06:37:13.822Z,102082.81
2023-05-13T06:39:40.564Z,102084.06
2023-05-13T06:42:07.134Z,102089.09
2023-05-13T06:44:33.549Z,102088.84
2023-05-13T06:47:00.053Z,102091.03
2023-05-13T06:49:26.523Z,102093.03
2023-05-13T06:51:53.040Z,102088.09
2023-05-13T06:54:19.471Z,102085.38
2023-05-13T06:56:45.872Z,102091.84
2023-05-13T06:59:12.626Z,102082.94
2023-05-13T07:01:39.093Z,102086.47
2023-05-13T07:04:05.600Z,102079.75
2023-05-13T07:06:32.369Z,102086.28
2023-05-13T07:08:58.754Z,102084.19
2023-05-13T07:11:25.213Z,102090.78
2023-05-13T07:13:51.612Z,102081.97
2023-05-13T07:16:18.117Z,102087.25
2023-05-13T07:18:44.610Z,102090.28
2023-05-13T07:21:11.048Z,102082.72
2023-05-13T07:23:37.430Z,102091.44
2023-05-13T07:26:03.977Z,102090.00
2023-05-13T07:28:31.114Z,102088.69
2023-05-13T07:30:58.373Z,102088.31
2023-05-13T07:33:24.817Z,102087.16
2023-05-13T07:35:51.750Z,102085.53
2023-05-13T07:38:18.452Z,102088.50
2023-05-13T07:40:44.870Z,102089.72
2023-05-13T07:43:11.716Z,102099.53
2023-05-13T07:45:39.224Z,102096.84
2023-05-13T07:48:05.890Z,102087.09
2023-05-13T07:50:32.656Z,102088.81
2023-05-13T07:52:59.051Z,102090.38
2023-05-13T07:55:25.684Z,102093.59
2023-05-13T07:57:52.164Z,102095.50
2023-05-13T08:00:18.680Z,102091.09
2023-05-13T08:02:45.432Z,102086.31
2023-05-13T08:05:12.393Z,102095.75
2023-05-13T08:07:38.873Z,102100.53
2023-05-13T08:10:05.975Z,102083.75
2023-05-13T08:12:32.369Z,102092.09
2023-05-13T08:14:58.794Z,102089.72
2023-05-13T08:17:25.217Z,102094.09
2023-05-13T08:19:51.656Z,102098.44
2023-05-13T08:22:18.065Z,102094.75
2023-05-13T08:24:44.479Z,102100.53
2023-05-13T08:27:10.870Z,102104.25
2023-05-13T08:29:37.259Z,102094.09
2023-05-13T08:32:04.106Z,102096.06
2023-05-13T08:34:30.582Z,102100.97
2023-05-13T08:36:56.983Z,102101.53
2023-05-13T08:39:23.451Z,102092.91
2023-05-13T08:41:51.912Z,102092.28
2023-05-13T08:44:19.068Z,102098.06
2023-05-13T08:46:50.809Z,102090.84
2023-05-13T08:49:17.267Z,102099.31
2023-05-13T08:51:44.316Z,102092.56
2023-05-13T08:54:11.486Z,102093.25
2023-05-13T08:56:37.880Z,102094.31
2023-05-13T08:59:04.364Z,102084.13
2023-05-13T09:01:31.190Z,102078.13
2023-05-13T09:04:05.017Z,102088.56
2023-05-13T09:06:31.445Z,102085.19
2023-05-13T09:08:57.907Z,102080.97
2023-05-13T09:11:24.687Z,102088.78
2023-05-13T09:14:03.676Z,102085.56
2023-05-13T09:16:30.407Z,102089.75
2023-05-13T09:19:02.553Z,102087.50
2023-05-13T09:21:34.136Z,102099.31
2023-05-13T09:24:11.549Z,102084.16
2023-05-13T09:26:38.677Z,102077.22
2023-05-13T09:29:16.358Z,102091.09
2023-05-13T09:31:44.236Z,102094.25
2023-05-13T09:34:10.733Z,102088.75
2023-05-13T09:36:38.316Z,102087.28
2023-05-13T09:39:05.552Z,102077.78
2023-05-13T09:41:32.077Z,102083.78
2023-05-13T09:43:59.128Z,102085.56
2023-05-13T09:46:25.586Z,102076.44
2023-05-13T09:48:57.184Z,102068.28
2023-05-13T09:51:27.346Z,102070.72
2023-05-13T09:53:54.851Z,102080.75
2023-05-13T09:56:23.977Z,102073.41
2023-05-13T09:58:53.610Z,102070.94
2023-05-13T10:01:21.396Z,102072.47
2023-05-13T10:03:48.324Z,102064.47
2023-05-13T10:06:18.170Z,102068.25
2023-05-13T10:08:50.453Z,102069.25
2023-05-13T10:11:17.377Z,102066.66
2023-05-13T10:13:49.819Z,102060.38
2023-05-13T10:16:16.615Z,102074.41
2023-05-13T10:18:43.273Z,102058.81
2023-05-13T10:21:09.739Z,102065.28
2023-05-13T10:23:36.861Z,102060.97
2023-05-13T10:26:03.303Z,102055.78
2023-05-13T10:28:29.798Z,102054.53
2023-05-13T10:30:57.104Z,102049.88
2023-05-13T10:33:24.585Z,102048.56
2023-05-13T10:36:06.646Z,102042.75
2023-05-13T10:38:51.837Z,102052.59
2023-05-13T10:41:55.762Z,102042.06
2023-05-13T10:44:22.980Z,102055.38
2023-05-13T10:46:50.276Z,102045.53
2023-05-13T10:49:17.035Z,102036.50
2023-05-13T10:51:47.449Z,102035.19
2023-05-13T10:54:20.156Z,102030.09
2023-05-13T10:56:47.206Z,102043.09
2023-05-13T10:59:13.610Z,102036.84
2023-05-13T11:01:45.866Z,102045.84
2023-05-13T11:04:18.318Z,102028.66
2023-05-13T11:06:46.557Z,102036.13
2023-05-13T11:09:30.568Z,102022.09
2023-05-13T11:11:59.032Z,102027.59
2023-05-13T11:14:30.796Z,102041.47
2023-05-13T11:17:00.309Z,102036.53
2023-05-13T11:19:28.953Z,102030.69
2023-05-13T11:22:16.197Z,102025.31
2023-05-13T11:24:45.872Z,102023.69
2023-05-13T11:27:17.212Z,102027.75
2023-05-13T11:29:55.208Z,102029.69
2023-05-13T11:32:53.841Z,102017.16
2023-05-13T11:35:21.665Z,102024.72
2023-05-13T11:37:50.922Z,102019.53
2023-05-13T11:40:24.678Z,102017.09
2023-05-13T11:42:51.106Z,102019.09
2023-05-13T11:45:18.324Z,102007.28
2023-05-13T11:47:44.927Z,102008.06
2023-05-13T11:50:22.014Z,102016.00
2023-05-13T11:52:57.139Z,102018.78
2023-05-13T11:55:31.641Z,102022.53
2023-05-13T11:57:58.787Z,102011.16
2023-05-13T12:00:37.027Z,102005.28
2023-05-13T12:03:11.967Z,102013.16
2023-05-13T12:05:45.020Z,102004.31
2023-05-13T12:08:11.579Z,102012.84
2023-05-13T12:10:44.145Z,102011.78
2023-05-13T12:13:10.913Z,102012.25
2023-05-13T12:15:37.443Z,102011.81
2023-05-13T12:18:04.043Z,102011.34
2023-05-13T12:20:30.513Z,102011.50
2023-05-13T12:22:57.092Z,102011.38
2023-05-13T12:25:47.834Z,102015.00
2023-05-13T12:28:17.110Z,102016.88
2023-05-13T12:30:56.821Z,102005.97
2023-05-13T12:33:28.141Z,102002.53
2023-05-13T12:36:14.170Z,102005.72
2023-05-13T12:38:40.708Z,102004.22
2023-05-13T12:41:13.315Z,102010.88
2023-05-13T12:43:40.962Z,101999.56
2023-05-13T12:46:08.041Z,101998.19
2023-05-13T12:48:34.508Z,102000.69
2023-05-13T12:51:02.259Z,102003.19
2023-05-13T12:53:29.545Z,102014.84
2023-05-13T12:55:56.079Z,101997.38
2023-05-13T12:58:22.702Z,102007.56
2023-05-13T13:00:49.329Z,102000.19
2023-05-13T13:03:16.355Z,102004.84
2023-05-13T13:05:43.072Z,102008.91
2023-05-13T13:08:09.711Z,101994.00
2023-05-13T13:10:36.203Z,101995.41
2023-05-13T13:13:02.663Z,102001.78
2023-05-13T13:15:29.132Z,102000.47
2023-05-13T13:17:55.603Z,101996.16
2023-05-13T13:20:22.416Z,102004.41
2023-05-13T13:22:48.843Z,101995.81
2023-05-13T13:25:15.340Z,102004.72
2023-05-13T13:27:41.772Z,101997.00
2023-05-13T13:30:08.700Z,101995.94
2023-05-13T13:32:35.784Z,101999.97
2023-05-13T13:35:03.341Z,101987.72
2023-05-13T13:37:30.192Z,101991.41
2023-05-13T13:39:56.569Z,101992.28
2023-05-13T13:42:26.726Z,101990.06
2023-05-13T13:44:57.578Z,101991.00
2023-05-13T13:47:24.067Z,101981.53
2023-05-13T13:49:51.671Z,101984.88
2023-05-13T13:52:18.116Z,101986.72
2023-05-13T13:54:44.551Z,101986.44
2023-05-13T13:57:11.112Z,101983.34
2023-05-13T13:59:37.522Z,101978.19
2023-05-13T14:02:04.581Z,101981.00
2023-05-13T14:04:31.029Z,101972.06
2023-05-13T14:06:57.877Z,101970.13
2023-05-13T14:09:24.453Z,101969.72
2023-05-13T14:11:51.177Z,101962.75
2023-05-13T14:14:17.714Z,101964.50
2023-05-13T14:16:44.320Z,101966.53
2023-05-13T14:19:11.393Z,101960.72
2023-05-13T14:21:37.981Z,101960.75
2023-05-13T14:24:04.538Z,101944.00
2023-05-13T14:26:31.049Z,101944.97
2023-05-13T14:28:57.508Z,101947.28
2023-05-13T14:31:24.137Z,101947.47
2023-05-13T14:33:50.875Z,101942.56
2023-05-13T14:36:17.428Z,101948.00
2023-05-13T14:38:44.318Z,101950.84
2023-05-13T14:41:10.880Z,101945.63
2023-05-13T14:43:37.302Z,101950.88
2023-05-13T14:46:03.786Z,101940.06
2023-05-13T14:48:30.334Z,101943.38
2023-05-13T14:50:56.742Z,101936.81
2023-05-13T14:53:23.174Z,101938.88
2023-05-13T14:55:51.403Z,101937.19
2023-05-13T14:58:18.113Z,101946.00
2023-05-13T15:00:44.692Z,101940.09
2023-05-13T15:03:11.872Z,101942.97
2023-05-13T15:05:38.556Z,101947.00
2023-05-13T15:08:05.086Z,101944.16
2023-05-13T15:10:31.511Z,101937.25
2023-05-13T15:12:58.767Z,101942.53
2023-05-13T15:15:25.349Z,101940.63
2023-05-13T15:17:52.392Z,101941.69
2023-05-13T15:20:19.239Z,101934.50
2023-05-13T15:22:45.975Z,101947.00
2023-05-13T15:25:12.416Z,101950.25
2023-05-13T15:27:38.859Z,101945.47
2023-05-13T15:30:06.061Z,101946.09
2023-05-13T15:32:32.526Z,101941.47
2023-05-13T15:34:59.075Z,101936.06
2023-05-13T15:37:25.484Z,101949.53
2023-05-13T15:39:51.908Z,101944.22
2023-05-13T15:42:18.444Z,101944.31
2023-05-13T15:44:45.615Z,101941.66
2023-05-13T15:47:12.316Z,101941.28
2023-05-13T15:49:38.922Z,101936.00
2023-05-13T15:52:07.128Z,101935.88
2023-05-13T15:54:34.085Z,101933.63
2023-05-13T15:57:00.594Z,101931.91
2023-05-13T15:59:27.097Z,101919.88
2023-05-13T16:01:53.601Z,101921.16
2023-05-13T16:04:20.116Z,101925.75
2023-05-13T16:06:46.694Z,101925.81
2023-05-13T16:09:13.353Z,101931.53
2023-05-13T16:11:39.777Z,101920.53
2023-05-13T16:14:07.847Z,101928.03
2023-05-13T16:16:34.522Z,101914.84
2023-05-13T16:19:03.508Z,101918.50
2023-05-13T16:21:31.663Z,101920.94
2023-05-13T16:23:58.297Z,101918.47
2023-05-13T16:26:24.777Z,101917.56
2023-05-13T16:28:51.767Z,101926.53
2023-05-13T16:31:18.547Z,101917.78
2023-05-13T16:33:45.020Z,101919.69
2023-05-13T16:36:14.560Z,101918.34
2023-05-13T16:38:41.614Z,101915.78
2023-05-13T16:41:08.692Z,101907.44
2023-05-13T16:43:35.235Z,101904.03
2023-05-13T16:46:01.755Z,101902.78
2023-05-13T16:48:28.428Z,101912.94
2023-05-13T16:50:56.235Z,101909.44
2023-05-13T16:53:23.138Z,101909.66
2023-05-13T16:55:50.393Z,101902.56
2023-05-13T16:58:16.932Z,101892.84
2023-05-13T17:00:43.627Z,101903.63
2023-05-13T17:03:10.865Z,101898.31
2023-05-13T17:05:37.412Z,101908.13
2023-05-13T17:08:04.091Z,101900.13
2023-05-13T17:10:30.532Z,101901.41
2023-05-13T17:12:58.336Z,101896.66
2023-05-13T17:15:25.093Z,101901.44
2023-05-13T17:17:51.660Z,101896.38
2023-05-13T17:20:19.789Z,101896.13
2023-05-13T17:22:47.310Z,101905.69
2023-05-13T17:25:14.615Z,101899.44
2023-05-13T17:27:41.143Z,101898.31
2023-05-13T17:30:08.433Z,101896.00
2023-05-13T17:32:35.022Z,101891.56
2023-05-13T17:35:02.170Z,101892.09
2023-05-13T17:37:28.595Z,101903.78
2023-05-13T17:39:55.258Z,101892.47
2023-05-13T17:42:21.756Z,101893.06
2023-05-13T17:44:48.300Z,101894.63
2023-05-13T17:47:15.191Z,101898.78
2023-05-13T17:49:41.665Z,101894.09
2023-05-13T17:52:08.192Z,101898.22
2023-05-13T17:54:34.633Z,101905.41
2023-05-13T17:57:01.125Z,101897.56
2023-05-13T17:59:27.562Z,101903.59
2023-05-13T18:01:54.073Z,101904.03
2023-05-13T18:04:20.553Z,101902.03
2023-05-13T18:06:47.001Z,101896.72
2023-05-13T18:09:13.397Z,101901.50
2023-05-13T18:11:40.008Z,101888.63
2023-05-13T18:14:06.956Z,101893.38
2023-05-13T18:16:33.567Z,101890.03
2023-05-13T18:19:00.173Z,101903.84
2023-05-13T18:21:27.348Z,101899.50
2023-05-13T18:23:53.890Z,101899.56
2023-05-13T18:26:20.878Z,101902.03
2023-05-13T18:28:47.467Z,101906.22
2023-05-13T18:31:14.013Z,101915.69
2023-05-13T18:33:40.550Z,101915.22
2023-05-13T18:36:08.735Z,101913.56
2023-05-13T18:38:36.404Z,101916.19
2023-05-13T18:41:03.213Z,101925.59
2023-05-13T18:43:30.255Z,101919.06
2023-05-13T18:45:57.908Z,101922.97
2023-05-13T18:48:25.096Z,101917.31
2023-05-13T18:50:53.081Z,101916.03
2023-05-13T18:53:19.670Z,101922.06
2023-05-13T18:55:46.480Z,101916.97
2023-05-13T18:58:13.621Z,101919.81
2023-05-13T19:00:40.084Z,101923.97
2023-05-13T19:03:06.695Z,101928.13
2023-05-13T19:05:33.352Z,101922.78
2023-05-13T19:08:00.585Z,101931.06
2023-05-13T19:10:27.080Z,101927.38
2023-05-13T19:12:53.638Z,101928.06
2023-05-13T19:15:21.398Z,101929.31
2023-05-13T19:17:47.986Z,101933.06
2023-05-13T19:20:16.403Z,101934.31
2023-05-13T19:22:42.865Z,101930.44
2023-05-13T19:25:09.586Z,101932.97
2023-05-13T19:27:37.079Z,101943.66
2023-05-13T19:30:04.214Z,101941.97
2023-05-13T19:32:30.689Z,101931.53
2023-05-13T19:34:57.195Z,101937.50
2023-05-13T19:37:23.619Z,101939.97
2023-05-13T19:39:50.092Z,101937.75
2023-05-13T19:42:16.500Z,101942.22
2023-05-13T19:44:43.093Z,101940.91
2023-05-13T19:47:09.574Z,101942.41
2023-05-13T19:49:35.982Z,101944.38
2023-05-13T19:52:02.574Z,101941.28
2023-05-13T19:54:29.001Z,101938.28
2023-05-13T19:56:56.078Z,101947.69
2023-05-13T19:59:22.800Z,101941.66
2023-05-13T20:01:49.386Z,101930.25
2023-05-13T20:04:16.419Z,101938.78
2023-05-13T20:06:42.827Z,101940.31
2023-05-13T20:09:10.495Z,101943.22
2023-05-13T20:11:36.886Z,101942.59
2023-05-13T20:14:03.824Z,101943.03
2023-05-13T20:16:30.735Z,101942.59
2023-05-13T20:18:57.161Z,101953.50
2023-05-13T20:21:23.617Z,101940.28
2023-05-13T20:23:50.165Z,101940.59
2023-05-13T20:26:17.206Z,101939.97
2023-05-13T20:28:45.667Z,101944.38
2023-05-13T20:31:12.085Z,101940.28
2023-05-13T20:33:38.520Z,101943.34
2023-05-13T20:36:06.439Z,101939.56
2023-05-13T20:38:32.893Z,101938.56
2023-05-13T20:40:59.811Z,101932.72
2023-05-13T20:43:26.199Z,101930.94
2023-05-13T20:45:52.983Z,101931.28
2023-05-13T20:48:19.510Z,101923.25
2023-05-13T20:50:46.032Z,101926.59
2023-05-13T20:53:12.667Z,101925.41
2023-05-13T20:55:39.229Z,101931.28
2023-05-13T20:58:05.639Z,101925.16
2023-05-13T21:00:32.143Z,101932.09
2023-05-13T21:02:58.924Z,101925.47
2023-05-13T21:05:25.761Z,101924.78
2023-05-13T21:07:52.524Z,101923.97
2023-05-13T21:10:18.929Z,101924.91
2023-05-13T21:12:47.740Z,101922.06
2023-05-13T21:15:14.697Z,101927.81
2023-05-13T21:17:41.252Z,101927.75
2023-05-13T21:20:10.891Z,101932.19
2023-05-13T21:22:37.288Z,101929.53
2023-05-13T21:25:03.978Z,101922.88
2023-05-13T21:27:30.506Z,101924.66
2023-05-13T21:29:56.882Z,101929.00
2023-05-13T21:32:23.329Z,101922.31
2023-05-13T21:34:49.792Z,101921.34
2023-05-13T21:37:16.753Z,101931.56
2023-05-13T21:39:43.160Z,101931.75
2023-05-13T21:42:09.553Z,101944.00
2023-05-13T21:44:35.946Z,101930.34
2023-05-13T21:47:02.392Z,101931.25
2023-05-13T21:49:28.760Z,101941.22
2023-05-13T21:51:55.185Z,101935.03
2023-05-13T21:54:21.570Z,101945.63
2023-05-13T21:56:48.014Z,101939.75
2023-05-13T21:59:14.537Z,101933.94
2023-05-13T22:01:41.034Z,101938.31
2023-05-13T22:04:07.540Z,101940.69
2023-05-13T22:06:33.947Z,101946.72
2023-05-13T22:09:01.236Z,101944.47
2023-05-13T22:11:27.821Z,101946.72
2023-05-13T22:13:54.265Z,101943.06
2023-05-13T22:16:20.763Z,101935.78
2023-05-13T22:18:48.264Z,101943.66
2023-05-13T22:21:14.717Z,101944.44
2023-05-13T22:23:41.114Z,101943.66
2023-05-13T22:26:07.533Z,101935.69
2023-05-13T22:28:33.976Z,101940.34
2023-05-13T22:31:00.379Z,101933.19
2023-05-13T22:33:26.831Z,101934.97
2023-05-13T22:35:53.472Z,101937.66
2023-05-13T22:38:20.041Z,101930.97
2023-05-13T22:40:46.521Z,101931.59
2023-05-13T22:43:12.942Z,101933.53
2023-05-13T22:45:39.423Z,101929.81
2023-05-13T22:48:06.139Z,101922.66
2023-05-13T22:50:32.607Z,101928.31
2023-05-13T22:52:59.025Z,101931.47
2023-05-13T22:55:25.531Z,101928.16
2023-05-13T22:57:51.945Z,101928.44
2023-05-13T23:00:18.349Z,101919.16
2023-05-13T23:02:44.869Z,101914.56
2023-05-13T23:05:11.336Z,101917.13
2023-05-13T23:07:37.764Z,101917.44
2023-05-13T23:10:04.465Z,101914.72
2023-05-13T23:12:30.860Z,101915.84
2023-05-13T23:14:57.333Z,101912.47
2023-05-13T23:17:23.780Z,101906.75
2023-05-13T23:19:50.327Z,101908.84
2023-05-13T23:22:16.758Z,101915.56
2023-05-13T23:24:43.313Z,101916.25
2023-05-13T23:27:09.746Z,101922.56
2023-05-13T23:29:36.311Z,101918.19
2023-05-13T23:32:05.048Z,101908.44
2023-05-13T23:34:33.130Z,101916.78
2023-05-13T23:36:59.766Z,101902.84
2023-05-13T23:39:26.154Z,101901.53
2023-05-13T23:41:52.530Z,101898.72
2023-05-13T23:44:18.977Z,101902.66
2023-05-13T23:46:45.591Z,101903.34
2023-05-13T23:49:11.994Z,101904.16
2023-05-13T23:51:38.436Z,101893.00
2023-05-13T23:54:04.879Z,101894.84
2023-05-13T23:56:31.309Z,101897.78
2023-05-13T23:58:57.755Z,101897.56
